Time;durP1;ratioP1;P1;durP2;ratioP2;P2;SDS_P1;SDS_P2;PMS_P1;PMS_P2;Temp;Humidity;BMP_temperature;BMP_pressure;BME280_temperature;BME280_humidity;BME280_pressure;Samples;Min_cycle;Max_cycle;Signal;HPM_P1;HPM_P2
2024/01/22 00:01:25;;;;;;;16.20;7.03;;;5.40;99.90;;;;;;5072394;28;20037;-50
2024/01/22 00:03:50;;;;;;;12.40;6.25;;;5.40;99.90;;;;;;5072632;28;20033;-50
2024/01/22 00:06:16;;;;;;;17.00;6.68;;;7.30;99.90;;;;;;5072552;28;20109;-48
2024/01/22 00:08:41;;;;;;;11.25;6.07;;;5.40;99.90;;;;;;5071076;28;20037;-51
2024/01/22 00:11:07;;;;;;;12.73;6.53;;;5.60;99.90;;;;;;5072294;28;20041;-48
2024/01/22 00:13:33;;;;;;;10.50;5.70;;;5.40;99.90;;;;;;5072476;28;20094;-49
2024/01/22 00:15:58;;;;;;;14.50;6.22;;;7.40;99.90;;;;;;5072300;28;20033;-51
2024/01/22 00:18:24;;;;;;;15.90;6.53;;;7.40;99.90;;;;;;5072292;28;20036;-49
2024/01/22 00:20:50;;;;;;;11.18;6.05;;;5.40;99.90;;;;;;5072391;28;20052;-47
2024/01/22 00:23:15;;;;;;;14.10;6.60;;;5.50;99.90;;;;;;5071832;28;20037;-48
2024/01/22 00:25:41;;;;;;;14.25;6.30;;;5.80;99.90;;;;;;5072300;28;20527;-49
2024/01/22 00:28:07;;;;;;;14.00;5.97;;;5.80;99.90;;;;;;5072010;28;20063;-48
2024/01/22 00:30:32;;;;;;;12.73;6.13;;;5.70;99.90;;;;;;5072334;28;20466;-52
2024/01/22 00:32:59;;;;;;;11.27;6.43;;;7.20;99.90;;;;;;5072319;28;20502;-51
2024/01/22 00:35:24;;;;;;;13.18;6.25;;;6.10;99.90;;;;;;5072024;28;20106;-52
2024/01/22 00:37:50;;;;;;;10.07;5.80;;;6.60;99.90;;;;;;5072026;28;20072;-48
2024/01/22 00:40:17;;;;;;;11.65;5.85;;;7.30;99.90;;;;;;5072097;28;20040;-49
2024/01/22 00:42:44;;;;;;;10.38;5.70;;;5.70;99.90;;;;;;5072235;28;20041;-51
2024/01/22 00:45:10;;;;;;;10.15;5.22;;;6.30;99.90;;;;;;5071978;28;20044;-49
2024/01/22 00:47:36;;;;;;;10.02;5.35;;;6.80;99.90;;;;;;5071617;28;20054;-48
2024/01/22 00:50:02;;;;;;;11.65;6.60;;;7.70;99.90;;;;;;5071790;28;20071;-48
2024/01/22 00:52:28;;;;;;;12.10;6.10;;;5.80;99.90;;;;;;5071786;28;20044;-51
2024/01/22 00:54:53;;;;;;;10.07;5.22;;;7.80;99.90;;;;;;5071836;28;20047;-60
2024/01/22 00:57:19;;;;;;;11.27;5.13;;;6.10;99.90;;;;;;5071730;28;20127;-60
2024/01/22 00:59:45;;;;;;;12.05;5.47;;;5.90;99.90;;;;;;5072057;28;20067;-60
2024/01/22 01:02:10;;;;;;;9.77;5.85;;;5.90;99.90;;;;;;5071684;28;20071;-60
2024/01/22 01:04:36;;;;;;;11.73;5.60;;;7.90;99.90;;;;;;5071551;28;20045;-60
2024/01/22 01:07:02;;;;;;;13.07;6.28;;;6.40;99.90;;;;;;5071609;28;20044;-59
2024/01/22 01:09:27;;;;;;;16.52;6.50;;;8.10;99.90;;;;;;5071663;28;20037;-60
2024/01/22 01:11:53;;;;;;;12.27;5.57;;;7.60;99.90;;;;;;5071813;28;20036;-60
2024/01/22 01:14:19;;;;;;;13.13;5.97;;;7.80;99.90;;;;;;5071615;28;20565;-60
2024/01/22 01:16:45;;;;;;;14.75;6.53;;;7.60;99.90;;;;;;5071732;28;20040;-60
2024/01/22 01:19:10;;;;;;;13.65;6.32;;;8.00;99.90;;;;;;5071696;28;20033;-60
2024/01/22 01:21:39;;;;;;;14.15;6.65;;;7.50;99.90;;;;;;5071862;28;20056;-60
2024/01/22 01:24:05;;;;;;;12.07;6.13;;;5.90;99.90;;;;;;5071677;28;20044;-60
2024/01/22 01:26:30;;;;;;;11.70;5.70;;;6.80;99.90;;;;;;5071461;28;20040;-60
2024/01/22 01:28:56;;;;;;;15.15;6.22;;;6.80;99.90;;;;;;5071679;28;20047;-60
2024/01/22 01:31:22;;;;;;;12.85;5.75;;;6.10;99.90;;;;;;5071592;28;20037;-60
2024/01/22 01:33:47;;;;;;;11.65;6.03;;;8.40;99.90;;;;;;5071078;28;20171;-60
2024/01/22 01:36:13;;;;;;;10.90;6.45;;;8.40;99.90;;;;;;5075358;28;20119;-60
2024/01/22 01:38:39;;;;;;;11.27;6.38;;;8.50;99.90;;;;;;5075051;28;20119;-58
2024/01/22 01:41:05;;;;;;;11.18;6.45;;;8.00;99.90;;;;;;5075180;28;20033;-59
2024/01/22 01:43:31;;;;;;;12.15;6.85;;;7.10;99.90;;;;;;5073936;28;20036;-59
2024/01/22 01:45:56;;;;;;;12.93;6.50;;;6.20;99.90;;;;;;5075331;28;20032;-59
2024/01/22 01:48:22;;;;;;;14.38;6.45;;;8.00;99.90;;;;;;5074814;28;20055;-59
2024/01/22 01:50:48;;;;;;;12.35;6.13;;;8.70;99.90;;;;;;5074925;28;20044;-58
2024/01/22 01:53:14;;;;;;;15.45;6.30;;;8.80;99.90;;;;;;5075064;28;20041;-58
2024/01/22 01:55:41;;;;;;;13.38;6.70;;;8.60;99.90;;;;;;5074855;28;20040;-58
2024/01/22 01:58:07;;;;;;;15.32;6.07;;;8.50;99.90;;;;;;5075012;28;20044;-58
2024/01/22 02:00:33;;;;;;;12.90;6.38;;;9.00;99.90;;;;;;5073732;28;20050;-59
2024/01/22 02:02:58;;;;;;;11.55;6.43;;;6.30;99.90;;;;;;5074550;28;20484;-58
2024/01/22 02:05:24;;;;;;;14.98;6.78;;;8.80;99.90;;;;;;5073262;28;20059;-58
2024/01/22 02:07:50;;;;;;;13.77;7.20;;;7.30;99.90;;;;;;5074775;28;20033;-59
2024/01/22 02:10:15;;;;;;;12.35;6.63;;;9.00;99.90;;;;;;5074824;28;20036;-59
2024/01/22 02:12:41;;;;;;;11.45;6.18;;;6.70;99.90;;;;;;5074496;28;20067;-58
2024/01/22 02:15:08;;;;;;;14.32;6.85;;;6.40;99.90;;;;;;5074746;28;20388;-59
2024/01/22 02:17:34;;;;;;;13.18;6.68;;;7.80;99.90;;;;;;5073196;28;20055;-59
2024/01/22 02:19:59;;;;;;;14.57;6.95;;;6.40;99.90;;;;;;5074342;28;20058;-59
2024/01/22 02:22:25;;;;;;;15.82;7.60;;;7.10;99.90;;;;;;5074342;28;20045;-59
2024/01/22 02:24:50;;;;;;;12.98;6.88;;;8.60;99.90;;;;;;5074450;28;20393;-58
2024/01/22 02:27:17;;;;;;;17.17;7.43;;;9.00;99.90;;;;;;5074255;28;20037;-58
2024/01/22 02:29:43;;;;;;;12.02;6.32;;;7.50;99.90;;;;;;5074287;28;20040;-59
2024/01/22 02:32:09;;;;;;;13.00;7.35;;;6.40;99.90;;;;;;5072867;28;20036;-59
2024/01/22 02:34:34;;;;;;;14.40;6.50;;;9.20;99.90;;;;;;5074375;28;20048;-59
2024/01/22 02:37:00;;;;;;;11.82;6.50;;;6.60;99.90;;;;;;5074289;28;20044;-60
2024/01/22 02:39:26;;;;;;;14.73;6.47;;;7.20;99.90;;;;;;5074277;28;20041;-60
2024/01/22 02:41:51;;;;;;;12.52;6.50;;;8.60;99.90;;;;;;5074218;28;20048;-59
2024/01/22 02:44:17;;;;;;;11.25;6.78;;;7.40;99.90;;;;;;5073885;28;20041;-59
2024/01/22 02:46:43;;;;;;;11.40;6.88;;;6.50;99.90;;;;;;5073736;28;20036;-59
2024/01/22 02:49:09;;;;;;;13.85;6.43;;;9.30;99.90;;;;;;5073764;28;20056;-60
2024/01/22 02:51:35;;;;;;;13.43;6.28;;;9.30;99.90;;;;;;5073869;28;20040;-60
2024/01/22 02:54:02;;;;;;;11.43;6.40;;;7.00;99.90;;;;;;5074097;28;20362;-60
2024/01/22 02:56:27;;;;;;;14.35;6.95;;;9.50;99.90;;;;;;5073736;28;20044;-59
2024/01/22 02:58:53;;;;;;;10.75;5.88;;;7.70;99.90;;;;;;5073724;28;20036;-59
2024/01/22 03:01:19;;;;;;;9.90;6.32;;;6.70;99.90;;;;;;5073680;28;20041;-59
2024/01/22 03:03:45;;;;;;;11.85;6.03;;;9.80;99.90;;;;;;5073637;28;20031;-60
2024/01/22 03:06:10;;;;;;;14.10;5.88;;;9.70;99.90;;;;;;5073884;28;20036;-59
2024/01/22 03:08:36;;;;;;;13.23;6.57;;;9.70;99.90;;;;;;5073567;28;20515;-59
2024/01/22 03:11:02;;;;;;;10.90;6.55;;;9.00;99.90;;;;;;5073640;28;20115;-59
2024/01/22 03:13:28;;;;;;;12.13;6.75;;;7.50;99.90;;;;;;5073410;28;20048;-59
2024/01/22 03:15:54;;;;;;;13.02;6.70;;;7.90;99.90;;;;;;5073304;28;20040;-58
2024/01/22 03:18:19;;;;;;;11.25;7.10;;;6.80;99.90;;;;;;5073656;28;20067;-60
2024/01/22 03:20:45;;;;;;;11.68;6.43;;;6.60;99.90;;;;;;5073428;28;20505;-60
2024/01/22 03:23:11;;;;;;;14.98;6.78;;;9.80;99.90;;;;;;5073161;28;20553;-59
2024/01/22 03:25:36;;;;;;;14.82;6.85;;;7.10;99.90;;;;;;5073197;28;20043;-60
2024/01/22 03:28:02;;;;;;;13.38;6.63;;;7.60;99.90;;;;;;5071798;28;20044;-60
2024/01/22 03:30:28;;;;;;;14.10;7.25;;;6.80;99.90;;;;;;5073031;28;20047;-59
2024/01/22 03:32:53;;;;;;;13.70;7.25;;;6.40;99.90;;;;;;5073203;28;20094;-59
2024/01/22 03:35:20;;;;;;;14.18;6.35;;;6.60;99.90;;;;;;5072935;28;20048;-59
2024/01/22 03:37:46;;;;;;;13.73;6.38;;;9.60;99.90;;;;;;5072955;28;20119;-60
2024/01/22 03:40:12;;;;;;;11.48;7.13;;;6.90;99.90;;;;;;5073080;28;20178;-60
2024/01/22 03:42:37;;;;;;;12.10;5.90;;;6.70;99.90;;;;;;5072741;28;20374;-59
2024/01/22 03:45:03;;;;;;;10.00;6.22;;;9.80;99.90;;;;;;5071641;28;20091;-60
2024/01/22 03:47:29;;;;;;;11.40;6.22;;;7.20;99.90;;;;;;5072307;28;20857;-59
2024/01/22 03:49:55;;;;;;;9.68;5.53;;;7.20;99.90;;;;;;5072962;28;20147;-59
2024/01/22 03:52:21;;;;;;;11.35;5.70;;;8.60;99.90;;;;;;5071209;28;20174;-59
2024/01/22 03:54:47;;;;;;;10.60;6.05;;;6.40;99.90;;;;;;5072681;28;20102;-59
2024/01/22 03:57:13;;;;;;;12.77;6.05;;;6.60;99.90;;;;;;5072047;28;20048;-59
2024/01/22 03:59:38;;;;;;;10.68;6.25;;;9.10;99.90;;;;;;5072559;28;20439;-59
2024/01/22 04:02:04;;;;;;;9.10;5.32;;;9.60;99.90;;;;;;5072753;28;20119;-59
2024/01/22 04:04:30;;;;;;;10.23;5.35;;;6.50;99.90;;;;;;5072260;28;20101;-59
2024/01/22 04:06:56;;;;;;;12.52;6.32;;;10.20;99.90;;;;;;5071364;28;20489;-60
2024/01/22 04:09:21;;;;;;;10.23;5.15;;;6.60;99.90;;;;;;5072324;28;20036;-60
2024/01/22 04:11:47;;;;;;;10.55;5.78;;;10.30;99.90;;;;;;5071436;28;20119;-60
2024/01/22 04:14:13;;;;;;;10.20;5.80;;;7.80;99.90;;;;;;5072359;28;20119;-60
2024/01/22 04:16:38;;;;;;;9.80;5.30;;;10.40;99.90;;;;;;5072210;28;20043;-59
2024/01/22 04:19:04;;;;;;;7.50;4.80;;;6.70;99.90;;;;;;5072188;28;20068;-60
2024/01/22 04:21:31;;;;;;;9.73;4.30;;;6.70;99.90;;;;;;5072210;28;20432;-60
2024/01/22 04:23:56;;;;;;;9.82;5.00;;;10.70;99.90;;;;;;5072503;28;20032;-59
2024/01/22 04:26:22;;;;;;;10.13;4.70;;;8.60;99.90;;;;;;5072017;28;20500;-59
2024/01/22 04:28:48;;;;;;;11.07;5.22;;;8.20;99.90;;;;;;5072398;28;20039;-60
2024/01/22 04:31:14;;;;;;;10.63;4.80;;;8.90;99.90;;;;;;5072016;28;20051;-60
2024/01/22 04:33:42;;;;;;;8.52;5.00;;;10.80;99.90;;;;;;5072082;28;20036;-60
2024/01/22 04:36:08;;;;;;;8.73;5.55;;;7.80;99.90;;;;;;5071980;28;20048;-60
2024/01/22 04:38:34;;;;;;;9.40;4.70;;;6.80;99.90;;;;;;5072106;28;20041;-60
2024/01/22 04:41:00;;;;;;;9.00;4.65;;;6.90;99.90;;;;;;5070882;28;20032;-60
2024/01/22 04:43:26;;;;;;;7.85;4.40;;;10.60;99.90;;;;;;5071976;28;20393;-60
2024/01/22 04:45:51;;;;;;;8.48;4.43;;;11.10;99.90;;;;;;5071920;28;20040;-59
2024/01/22 04:48:17;;;;;;;9.95;4.50;;;7.30;99.90;;;;;;5071708;28;20099;-60
2024/01/22 04:50:43;;;;;;;10.88;4.35;;;7.70;99.90;;;;;;5071852;28;20044;-59
2024/01/22 04:53:08;;;;;;;8.10;4.00;;;10.10;99.90;;;;;;5072210;28;20051;-59
2024/01/22 04:55:34;;;;;;;8.18;4.25;;;7.10;99.90;;;;;;5070870;28;20040;-59
2024/01/22 04:58:00;;;;;;;7.95;4.18;;;7.30;99.90;;;;;;5071821;28;20040;-60
2024/01/22 05:00:25;;;;;;;8.30;3.88;;;10.10;99.90;;;;;;5071978;28;20037;-60
2024/01/22 05:02:51;;;;;;;7.63;4.32;;;7.70;99.90;;;;;;5071812;28;20052;-59
2024/01/22 05:05:17;;;;;;;7.38;4.50;;;7.10;99.90;;;;;;5071949;28;20072;-60
2024/01/22 05:07:43;;;;;;;9.63;3.85;;;11.40;99.90;;;;;;5071756;28;20503;-60
2024/01/22 05:10:13;;;;;;;7.80;4.20;;;11.70;99.90;;;;;;5073930;28;20037;-59
2024/01/22 05:12:40;;;;;;;6.82;3.10;;;11.20;99.90;;;;;;5075849;28;20043;-59
2024/01/22 05:15:06;;;;;;;7.88;3.70;;;7.30;99.90;;;;;;5075575;28;20044;-60
2024/01/22 05:17:32;;;;;;;7.18;3.53;;;10.80;99.90;;;;;;5075966;28;20457;-59
2024/01/22 05:20:01;;;;;;;6.47;3.22;;;9.30;99.90;;;;;;5075607;28;20086;-59
2024/01/22 05:22:26;;;;;;;5.53;2.55;;;12.30;99.90;;;;;;5075759;28;20373;-59
2024/01/22 05:24:53;;;;;;;5.60;2.90;;;8.80;99.90;;;;;;5075770;28;20044;-60
2024/01/22 05:27:19;;;;;;;8.05;3.08;;;12.40;99.90;;;;;;5075398;28;20142;-59
2024/01/22 05:29:44;;;;;;;6.82;3.08;;;7.90;99.90;;;;;;5075347;28;20076;-59
2024/01/22 05:32:10;;;;;;;6.05;2.90;;;12.30;99.90;;;;;;5075500;28;20037;-59
2024/01/22 05:34:36;;;;;;;5.82;2.40;;;12.10;99.90;;;;;;5075264;28;20507;-59
2024/01/22 05:37:01;;;;;;;5.13;2.50;;;10.90;99.90;;;;;;5075372;28;20041;-60
2024/01/22 05:39:27;;;;;;;7.07;2.40;;;7.60;99.90;;;;;;5074128;28;20085;-59
2024/01/22 05:41:54;;;;;;;6.10;2.42;;;9.60;99.90;;;;;;5075279;28;20036;-58
2024/01/22 05:44:20;;;;;;;6.65;2.50;;;8.70;99.90;;;;;;5075024;28;20120;-59
2024/01/22 05:46:45;;;;;;;6.45;2.20;;;9.30;99.90;;;;;;5075011;28;20630;-59
2024/01/22 05:49:11;;;;;;;6.28;2.47;;;8.90;99.90;;;;;;5074770;28;20059;-59
2024/01/22 05:51:37;;;;;;;5.05;1.98;;;8.20;99.90;;;;;;5075287;28;20036;-59
2024/01/22 05:54:03;;;;;;;5.60;2.17;;;12.50;99.90;;;;;;5073804;28;20044;-59
2024/01/22 05:56:28;;;;;;;5.95;2.10;;;11.90;99.90;;;;;;5074847;28;20036;-59
2024/01/22 05:58:55;;;;;;;8.82;2.72;;;12.50;99.90;;;;;;5074604;28;20036;-60
2024/01/22 06:01:25;;;;;;;6.88;2.28;;;12.30;99.90;;;;;;5074742;28;20047;-60
2024/01/22 06:03:51;;;;;;;7.55;2.58;;;8.80;99.90;;;;;;5074858;28;20052;-60
2024/01/22 06:06:18;;;;;;;5.38;1.90;;;12.40;99.90;;;;;;5074769;28;20033;-60
2024/01/22 06:08:45;;;;;;;5.82;2.00;;;11.90;99.90;;;;;;5074646;28;20132;-60
2024/01/22 06:11:11;;;;;;;6.15;1.98;;;11.30;99.90;;;;;;5074937;28;20037;-60
2024/01/22 06:13:44;;;;;;;3.90;1.38;;;8.40;99.90;;;;;;5074884;28;20033;-60
2024/01/22 06:16:13;;;;;;;4.35;1.45;;;8.50;99.90;;;;;;5074690;28;20048;-60
2024/01/22 06:18:41;;;;;;;4.45;1.25;;;12.20;99.90;;;;;;5074262;28;20040;-60
2024/01/22 06:21:07;;;;;;;5.03;1.40;;;12.00;99.90;;;;;;5074327;28;20442;-60
2024/01/22 06:23:33;;;;;;;7.90;2.00;;;9.80;99.90;;;;;;5074350;28;20405;-60
2024/01/22 06:26:00;;;;;;;6.72;1.50;;;12.20;99.90;;;;;;5074332;28;20048;-59
2024/01/22 06:28:26;;;;;;;5.65;1.98;;;11.60;99.90;;;;;;5074239;28;20040;-59
2024/01/22 06:30:53;;;;;;;8.85;3.85;;;8.90;99.90;;;;;;5074521;28;20040;-59
2024/01/22 06:33:20;;;;;;;6.65;2.75;;;12.00;99.90;;;;;;5074237;28;20040;-59
2024/01/22 06:35:46;;;;;;;9.10;2.92;;;8.10;99.90;;;;;;5074462;28;20115;-58
2024/01/22 06:38:12;;;;;;;11.95;3.38;;;8.50;99.90;;;;;;5073353;28;20169;-59
2024/01/22 06:40:38;;;;;;;10.30;3.03;;;12.40;99.90;;;;;;5073173;28;20037;-60
2024/01/22 06:43:04;;;;;;;11.00;2.85;;;8.00;99.90;;;;;;5072002;28;20056;-59
2024/01/22 06:45:30;;;;;;;9.80;2.70;;;11.70;99.90;;;;;;5073043;28;20165;-60
2024/01/22 06:47:56;;;;;;;10.05;2.97;;;7.80;99.90;;;;;;5073113;28;20517;-60
2024/01/22 06:50:22;;;;;;;13.20;3.05;;;11.60;99.90;;;;;;5073082;28;20222;-60
2024/01/22 06:52:48;;;;;;;18.80;3.28;;;12.00;99.90;;;;;;5072976;28;20029;-59
2024/01/22 06:55:15;;;;;;;17.17;3.13;;;9.90;99.90;;;;;;5071830;28;20047;-60
2024/01/22 06:57:40;;;;;;;14.05;3.40;;;9.70;99.90;;;;;;5071961;28;20044;-60
2024/01/22 07:00:07;;;;;;;16.15;3.60;;;7.60;99.90;;;;;;5072656;28;20046;-60
2024/01/22 07:02:33;;;;;;;13.75;3.60;;;12.00;99.90;;;;;;5071546;28;20045;-60
2024/01/22 07:04:59;;;;;;;16.40;4.28;;;8.80;99.90;;;;;;5072872;28;20051;-60
2024/01/22 07:07:25;;;;;;;15.30;3.40;;;7.90;99.90;;;;;;5072648;28;20037;-60
2024/01/22 07:09:52;;;;;;;13.95;3.35;;;9.10;99.90;;;;;;5072707;28;20571;-60
2024/01/22 07:12:22;;;;;;;18.05;4.20;;;11.80;99.90;;;;;;5072612;28;20052;-59
2024/01/22 07:14:48;;;;;;;21.90;4.85;;;9.00;99.90;;;;;;5072729;28;20049;-60
2024/01/22 07:17:16;;;;;;;21.15;4.65;;;10.50;99.90;;;;;;5072545;28;20143;-60
2024/01/22 07:19:43;;;;;;;22.58;3.80;;;11.80;99.90;;;;;;5054737;28;20044;-60
2024/01/22 07:22:09;;;;;;;23.10;3.60;;;8.00;99.90;;;;;;5072469;28;20048;-60
2024/01/22 07:24:35;;;;;;;23.35;4.72;;;10.70;99.90;;;;;;5071041;28;20102;-60
2024/01/22 07:27:01;;;;;;;16.92;3.38;;;7.60;99.90;;;;;;5072265;28;20128;-60
2024/01/22 07:29:27;;;;;;;27.33;6.07;;;7.80;99.90;;;;;;5072482;28;20436;-60
2024/01/22 07:31:53;;;;;;;23.60;4.50;;;7.80;99.90;;;;;;5071665;28;20086;-60
2024/01/22 07:34:19;;;;;;;21.42;4.18;;;7.90;99.90;;;;;;5072344;28;20040;-60
2024/01/22 07:36:45;;;;;;;21.38;3.38;;;8.10;99.90;;;;;;5072024;28;20445;-60
2024/01/22 07:39:11;;;;;;;23.63;4.63;;;11.50;99.90;;;;;;5070649;28;20491;-59
2024/01/22 07:41:38;;;;;;;20.70;3.92;;;8.50;99.90;;;;;;5072009;28;20071;-60
2024/01/22 07:44:05;;;;;;;25.65;4.88;;;8.00;99.90;;;;;;5072239;28;20044;-59
2024/01/22 07:46:31;;;;;;;30.52;4.88;;;10.90;99.90;;;;;;5053819;28;20461;-59
2024/01/22 07:48:57;;;;;;;21.05;4.28;;;7.60;99.90;;;;;;5071540;28;20052;-59
2024/01/22 07:51:23;;;;;;;20.55;4.18;;;8.70;99.90;;;;;;5071876;28;20055;-60
2024/01/22 07:53:49;;;;;;;22.08;3.63;;;7.60;99.90;;;;;;5071957;28;20037;-59
2024/01/22 07:56:15;;;;;;;22.25;3.88;;;11.50;99.90;;;;;;5071856;28;20056;-60
2024/01/22 07:58:41;;;;;;;17.45;3.00;;;11.20;99.90;;;;;;5071764;28;20055;-60
2024/01/22 08:01:07;;;;;;;17.48;2.60;;;10.60;99.90;;;;;;5071751;28;20044;-60
2024/01/22 08:03:33;;;;;;;16.73;2.92;;;10.70;99.90;;;;;;5071435;28;20067;-60
2024/01/22 08:05:59;;;;;;;10.93;1.58;;;10.70;99.90;;;;;;5071262;28;20125;-60
2024/01/22 08:08:28;;;;;;;12.25;2.40;;;11.50;99.90;;;;;;5071724;28;20445;-60
2024/01/22 08:10:54;;;;;;;15.55;3.45;;;7.40;99.90;;;;;;5071803;28;20040;-60
2024/01/22 08:13:21;;;;;;;15.18;2.38;;;9.60;99.90;;;;;;5071693;28;20039;-60
2024/01/22 08:15:50;;;;;;;14.73;2.70;;;10.90;99.90;;;;;;5071314;28;20038;-60
2024/01/22 08:18:16;;;;;;;16.15;3.30;;;11.30;99.90;;;;;;5071078;28;20499;-60
2024/01/22 08:20:42;;;;;;;17.10;2.75;;;10.40;99.90;;;;;;5071379;28;20045;-60
2024/01/22 08:23:09;;;;;;;18.02;3.28;;;11.10;99.90;;;;;;5071689;28;20036;-60
2024/01/22 08:25:34;;;;;;;20.02;3.10;;;11.30;99.90;;;;;;5053271;28;20048;-60
2024/01/22 08:28:00;;;;;;;19.27;2.45;;;11.10;99.90;;;;;;5071596;28;20411;-60
2024/01/22 08:30:27;;;;;;;19.05;3.08;;;11.20;99.90;;;;;;5071368;28;20044;-60
2024/01/22 08:32:53;;;;;;;22.42;4.53;;;10.10;99.90;;;;;;5071451;28;20062;-60
2024/01/22 08:35:20;;;;;;;15.07;3.28;;;7.70;99.90;;;;;;5071147;28;20052;-60
2024/01/22 08:37:50;;;;;;;22.88;3.65;;;10.70;99.90;;;;;;5071316;28;20047;-60
2024/01/22 08:40:21;;;;;;;24.20;4.85;;;7.70;99.90;;;;;;5065199;28;20041;-60
2024/01/22 08:42:55;;;;;;;29.75;4.13;;;7.30;99.90;;;;;;5060332;28;20067;-61
2024/01/22 08:45:21;;;;;;;25.83;4.43;;;10.60;99.90;;;;;;5059744;28;20039;-61
2024/01/22 08:47:49;;;;;;;32.92;6.22;;;10.30;99.90;;;;;;5060171;28;20062;-61
2024/01/22 08:50:17;;;;;;;25.80;4.47;;;10.90;99.90;;;;;;5061406;28;20534;-61
2024/01/22 08:52:45;;;;;;;28.42;4.85;;;10.70;99.90;;;;;;5060072;28;20083;-60
2024/01/22 08:55:11;;;;;;;34.95;5.10;;;10.30;99.90;;;;;;5060075;28;20059;-60
2024/01/22 08:57:36;;;;;;;30.42;4.95;;;7.70;99.90;;;;;;5061499;28;20080;-60
2024/01/22 09:00:10;;;;;;;36.80;5.97;;;7.30;99.90;;;;;;5059978;28;20048;-61
2024/01/22 09:02:40;;;;;;;29.38;4.68;;;8.70;99.90;;;;;;5059529;28;20045;-60
2024/01/22 09:05:09;;;;;;;38.90;5.78;;;10.00;99.90;;;;;;5060658;28;20040;-61
2024/01/22 09:07:36;;;;;;;34.60;5.72;;;7.70;99.90;;;;;;5061142;28;20052;-60
2024/01/22 09:10:06;;;;;;;37.88;6.55;;;7.30;99.90;;;;;;5060197;28;20079;-61
2024/01/22 09:12:33;;;;;;;48.70;7.65;;;7.90;99.90;;;;;;5064763;28;20633;-61
2024/01/22 09:14:59;;;;;;;44.83;6.75;;;8.50;99.90;;;;;;5071161;28;20047;-61
2024/01/22 09:17:25;;;;;;;41.63;6.45;;;10.60;99.90;;;;;;5070768;28;20048;-61
2024/01/22 09:19:51;;;;;;;45.70;6.70;;;10.20;99.90;;;;;;5070654;28;20488;-60
2024/01/22 09:22:19;;;;;;;46.50;8.13;;;10.50;99.90;;;;;;5071028;28;20064;-60
2024/01/22 09:24:45;;;;;;;44.67;7.40;;;10.10;99.90;;;;;;5071146;28;20071;-59
2024/01/22 09:27:11;;;;;;;35.20;7.10;;;8.40;99.90;;;;;;5071305;28;20524;-60
2024/01/22 09:29:37;;;;;;;45.13;7.22;;;10.30;99.90;;;;;;5071667;28;20120;-60
2024/01/22 09:32:02;;;;;;;40.92;6.45;;;7.70;99.90;;;;;;5071407;28;20128;-60
2024/01/22 09:34:28;;;;;;;47.38;7.93;;;8.90;99.90;;;;;;5071524;28;20480;-59
2024/01/22 09:36:54;;;;;;;38.25;6.00;;;9.10;99.90;;;;;;5071253;28;20404;-59
2024/01/22 09:39:20;;;;;;;45.75;7.90;;;8.30;99.90;;;;;;5071463;28;20036;-61
2024/01/22 09:41:46;;;;;;;41.72;6.95;;;10.30;99.90;;;;;;5071365;28;20044;-61
2024/01/22 09:44:12;;;;;;;45.45;7.35;;;8.00;99.90;;;;;;5071481;28;20033;-61
2024/01/22 09:46:39;;;;;;;37.05;5.85;;;10.30;99.90;;;;;;5071558;28;20044;-62
2024/01/22 09:49:04;;;;;;;35.28;6.70;;;9.80;99.90;;;;;;5071141;28;20404;-61
2024/01/22 09:51:34;;;;;;;28.95;6.05;;;8.00;99.90;;;;;;5071552;28;20040;-61
2024/01/22 09:54:06;;;;;;;35.25;5.90;;;7.90;99.90;;;;;;5071608;28;20123;-61
2024/01/22 09:56:32;;;;;;;32.28;4.75;;;7.90;99.90;;;;;;5073602;28;20113;-61
2024/01/22 09:59:04;;;;;;;33.85;5.43;;;7.90;99.90;;;;;;5076283;28;20051;-61
2024/01/22 10:01:31;;;;;;;38.15;6.95;;;8.80;99.90;;;;;;5074859;28;20079;-61
2024/01/22 10:03:57;;;;;;;34.20;6.95;;;8.20;99.90;;;;;;5075137;28;20036;-61
2024/01/22 10:06:23;;;;;;;35.13;6.47;;;9.00;99.90;;;;;;5074593;28;20036;-61
2024/01/22 10:08:58;;;;;;;37.08;5.63;;;10.20;99.90;;;;;;5074564;28;20544;-62
2024/01/22 10:11:25;;;;;;;38.58;6.90;;;8.40;99.90;;;;;;5074862;28;20123;-62
2024/01/22 10:13:51;;;;;;;24.75;4.65;;;8.90;99.90;;;;;;5074802;28;20238;-61
2024/01/22 10:16:17;;;;;;;23.92;4.07;;;8.60;99.90;;;;;;5074668;28;20036;-61
2024/01/22 10:19:00;;;;;;;38.53;7.68;;;8.40;99.90;;;;;;5074392;28;20055;-62
2024/01/22 10:21:26;;;;;;;27.83;5.40;;;9.90;99.90;;;;;;5074684;28;20078;-62
2024/01/22 10:23:57;;;;;;;26.63;4.60;;;8.80;99.90;;;;;;5074236;28;20571;-62
2024/01/22 10:26:23;;;;;;;26.13;4.45;;;9.90;99.90;;;;;;5074273;28;20079;-62
2024/01/22 10:28:48;;;;;;;29.45;5.25;;;9.00;99.90;;;;;;5074274;28;20415;-62
2024/01/22 10:31:14;;;;;;;31.52;4.28;;;9.60;99.90;;;;;;5074365;28;20094;-62
2024/01/22 10:33:40;;;;;;;29.13;5.30;;;9.00;99.90;;;;;;5074188;28;20071;-61
2024/01/22 10:36:17;;;;;;;29.30;5.38;;;9.80;99.90;;;;;;5073142;28;20115;-61
2024/01/22 10:38:47;;;;;;;20.67;3.88;;;8.90;99.90;;;;;;5069334;28;20041;-62
2024/01/22 10:41:17;;;;;;;20.67;4.43;;;9.60;99.90;;;;;;5064652;28;20489;-62
2024/01/22 10:43:43;;;;;;;23.92;4.47;;;9.40;99.90;;;;;;5063355;28;20076;-62
2024/01/22 10:46:11;;;;;;;24.75;4.63;;;9.60;99.90;;;;;;5063534;28;20068;-61
2024/01/22 10:48:37;;;;;;;16.83;2.65;;;9.20;99.90;;;;;;5070116;28;20061;-62
2024/01/22 10:51:06;;;;;;;19.38;3.28;;;9.20;99.90;;;;;;5069136;28;20052;-62
2024/01/22 10:53:32;;;;;;;22.55;3.88;;;9.20;99.90;;;;;;5064675;28;20041;-62
2024/01/22 10:56:03;;;;;;;20.95;4.05;;;9.20;99.90;;;;;;5062161;28;20061;-62
2024/01/22 10:58:43;;;;;;;21.15;4.15;;;9.60;99.90;;;;;;5063131;28;20048;-62
2024/01/22 11:01:18;;;;;;;19.33;3.55;;;9.20;99.90;;;;;;5063367;28;20056;-61
2024/01/22 11:03:47;;;;;;;21.88;3.63;;;9.20;99.90;;;;;;5062400;28;20045;-62
2024/01/22 11:06:17;;;;;;;22.08;4.55;;;9.20;99.90;;;;;;5057659;28;20072;-61
2024/01/22 11:08:51;;;;;;;19.42;3.05;;;9.60;99.90;;;;;;5058788;28;20052;-61
2024/01/22 11:11:22;;;;;;;19.85;3.42;;;9.10;99.90;;;;;;5053365;28;20041;-61
2024/01/22 11:13:52;;;;;;;19.90;3.28;;;9.10;99.90;;;;;;5053617;28;20044;-61
2024/01/22 11:16:21;;;;;;;22.88;3.80;;;9.50;99.90;;;;;;5053158;28;20112;-61
2024/01/22 11:19:04;;;;;;;19.88;3.65;;;9.10;99.90;;;;;;5053133;28;20072;-61
2024/01/22 11:21:37;;;;;;;14.30;3.38;;;9.20;99.90;;;;;;5053314;28;20041;-61
2024/01/22 11:24:14;;;;;;;20.75;3.92;;;9.30;99.90;;;;;;5053098;28;20041;-62
2024/01/22 11:26:49;;;;;;;21.40;2.85;;;9.90;99.90;;;;;;5053217;28;20552;-61
2024/01/22 11:29:23;;;;;;;20.42;3.05;;;9.50;99.90;;;;;;5053209;28;20140;-62
2024/01/22 11:31:49;;;;;;;23.13;3.00;;;9.90;99.90;;;;;;5055686;28;20034;-62
2024/01/22 11:34:38;;;;;;;16.75;3.15;;;9.90;99.90;;;;;;5061742;28;20123;-61
2024/01/22 11:37:03;;;;;;;19.60;3.42;;;9.60;99.90;;;;;;5058991;28;20032;-62
2024/01/22 11:39:35;;;;;;;21.40;3.38;;;9.60;99.90;;;;;;5073187;28;20044;-61
2024/01/22 11:42:16;;;;;;;20.98;3.55;;;9.70;99.90;;;;;;5071128;28;20044;-61
2024/01/22 11:44:48;;;;;;;21.52;3.15;;;9.70;99.90;;;;;;5072730;28;20127;-62
2024/01/22 11:47:15;;;;;;;16.80;2.78;;;9.70;99.90;;;;;;5072539;28;20052;-62
2024/01/22 11:49:41;;;;;;;22.48;3.83;;;9.60;99.90;;;;;;5072876;28;20080;-61
2024/01/22 11:52:10;;;;;;;16.60;2.45;;;9.90;99.90;;;;;;5071546;28;20040;-61
2024/01/22 11:54:35;;;;;;;17.92;3.35;;;9.70;99.90;;;;;;5072770;28;20098;-62
2024/01/22 11:57:03;;;;;;;19.17;3.70;;;9.90;99.90;;;;;;5071332;28;20037;-62
2024/01/22 11:59:29;;;;;;;14.90;2.60;;;10.00;99.90;;;;;;5072673;28;20094;-61
2024/01/22 12:02:10;;;;;;;19.42;3.88;;;9.60;99.90;;;;;;5072542;28;20504;-62
2024/01/22 12:04:36;;;;;;;19.80;2.97;;;9.80;99.90;;;;;;5072635;28;20072;-62
2024/01/22 12:07:02;;;;;;;13.82;2.78;;;9.60;99.90;;;;;;5072216;28;20040;-62
2024/01/22 12:09:34;;;;;;;20.05;3.33;;;9.70;99.90;;;;;;5072607;28;20469;-62
2024/01/22 12:12:03;;;;;;;;;;;9.60;99.90;;;;;;5072799;28;20049;-62
2024/01/22 12:14:28;;;;;;;18.15;3.72;;;9.70;99.90;;;;;;5072692;28;19916;-62
2024/01/22 12:17:01;;;;;;;21.02;5.28;;;9.80;99.90;;;;;;5072285;28;20087;-62
2024/01/22 12:19:27;;;;;;;19.88;3.33;;;9.80;99.90;;;;;;5071995;28;20040;-62
2024/01/22 12:21:52;;;;;;;15.63;3.03;;;9.70;99.90;;;;;;5072249;28;20028;-61
2024/01/22 12:24:19;;;;;;;14.25;3.10;;;9.40;99.90;;;;;;5072207;28;20037;-62
2024/01/22 12:26:45;;;;;;;16.65;4.53;;;9.60;99.90;;;;;;5072405;28;20048;-62
2024/01/22 12:29:27;;;;;;;23.08;4.00;;;9.50;99.90;;;;;;5072330;28;20047;-61
2024/01/22 12:32:06;;;;;;;18.55;2.33;;;9.50;99.90;;;;;;5072166;28;20078;-62
2024/01/22 12:34:33;;;;;;;22.33;3.38;;;9.50;99.90;;;;;;5063871;28;20037;-62
2024/01/22 12:37:21;;;;;;;18.77;3.15;;;9.40;99.90;;;;;;5062318;28;20143;-61
2024/01/22 12:39:48;;;;;;;24.52;3.78;;;9.40;99.90;;;;;;5061630;28;20033;-61
2024/01/22 12:42:21;;;;;;;20.27;3.33;;;9.50;99.90;;;;;;5070904;28;20040;-62
2024/01/22 12:44:59;;;;;;;20.17;4.25;;;9.40;99.90;;;;;;5072151;28;20423;-62